sensor_id;sensor_type;location;lat;lon;timestamp;P1;durP1;ratioP1;P2;durP2;ratioP2
9906;SDS011;4992;51.628;6.664;2022-12-20T00:01:10;6.68;;;3.25;;
9906;SDS011;4992;51.628;6.664;2022-12-20T00:03:40;6.65;;;3.08;;
9906;SDS011;4992;51.628;6.664;2022-12-20T00:06:05;5.30;;;2.92;;
9906;SDS011;4992;51.628;6.664;2022-12-20T00:08:31;5.47;;;3.47;;
9906;SDS011;4992;51.628;6.664;2022-12-20T00:10:59;5.38;;;3.40;;
9906;SDS011;4992;51.628;6.664;2022-12-20T00:13:25;5.88;;;3.42;;
9906;SDS011;4992;51.628;6.664;2022-12-20T00:16:02;4.57;;;3.15;;
9906;SDS011;4992;51.628;6.664;2022-12-20T00:18:49;5.82;;;3.22;;
9906;SDS011;4992;51.628;6.664;2022-12-20T00:21:17;3.63;;;3.23;;
9906;SDS011;4992;51.628;6.664;2022-12-20T00:23:42;6.82;;;3.08;;
9906;SDS011;4992;51.628;6.664;2022-12-20T00:26:10;7.15;;;3.08;;
9906;SDS011;4992;51.628;6.664;2022-12-20T00:28:37;4.65;;;3.15;;
9906;SDS011;4992;51.628;6.664;2022-12-20T00:31:04;5.32;;;3.42;;
9906;SDS011;4992;51.628;6.664;2022-12-20T00:33:31;4.10;;;3.25;;
9906;SDS011;4992;51.628;6.664;2022-12-20T00:35:57;5.53;;;3.40;;
9906;SDS011;4992;51.628;6.664;2022-12-20T00:38:23;5.10;;;3.30;;
9906;SDS011;4992;51.628;6.664;2022-12-20T00:43:32;6.55;;;3.50;;
9906;SDS011;4992;51.628;6.664;2022-12-20T00:48:27;7.60;;;4.43;;
9906;SDS011;4992;51.628;6.664;2022-12-20T00:51:04;5.90;;;3.70;;
9906;SDS011;4992;51.628;6.664;2022-12-20T00:53:32;5.25;;;3.20;;
9906;SDS011;4992;51.628;6.664;2022-12-20T00:55:58;7.80;;;3.13;;
9906;SDS011;4992;51.628;6.664;2022-12-20T00:58:24;4.80;;;3.28;;
9906;SDS011;4992;51.628;6.664;2022-12-20T01:00:50;4.60;;;2.80;;
9906;SDS011;4992;51.628;6.664;2022-12-20T01:03:16;4.15;;;2.72;;
9906;SDS011;4992;51.628;6.664;2022-12-20T01:05:52;4.07;;;2.60;;
9906;SDS011;4992;51.628;6.664;2022-12-20T01:08:19;5.60;;;2.78;;
9906;SDS011;4992;51.628;6.664;2022-12-20T01:10:45;4.43;;;3.13;;
9906;SDS011;4992;51.628;6.664;2022-12-20T01:13:12;4.88;;;2.88;;
9906;SDS011;4992;51.628;6.664;2022-12-20T01:15:37;3.05;;;2.33;;
9906;SDS011;4992;51.628;6.664;2022-12-20T01:18:03;4.75;;;2.42;;
9906;SDS011;4992;51.628;6.664;2022-12-20T01:20:29;3.63;;;2.47;;
9906;SDS011;4992;51.628;6.664;2022-12-20T01:22:54;4.65;;;2.38;;
9906;SDS011;4992;51.628;6.664;2022-12-20T01:25:20;3.53;;;2.42;;
9906;SDS011;4992;51.628;6.664;2022-12-20T01:27:45;3.45;;;2.22;;
9906;SDS011;4992;51.628;6.664;2022-12-20T01:30:11;4.03;;;2.05;;
9906;SDS011;4992;51.628;6.664;2022-12-20T01:32:37;3.25;;;2.20;;
9906;SDS011;4992;51.628;6.664;2022-12-20T01:35:02;5.88;;;2.22;;
9906;SDS011;4992;51.628;6.664;2022-12-20T01:37:28;3.60;;;1.98;;
9906;SDS011;4992;51.628;6.664;2022-12-20T01:39:55;3.45;;;2.38;;
9906;SDS011;4992;51.628;6.664;2022-12-20T01:42:20;2.75;;;2.13;;
9906;SDS011;4992;51.628;6.664;2022-12-20T01:44:53;5.38;;;2.30;;
9906;SDS011;4992;51.628;6.664;2022-12-20T01:47:20;2.92;;;1.83;;
9906;SDS011;4992;51.628;6.664;2022-12-20T01:49:47;3.53;;;2.35;;
9906;SDS011;4992;51.628;6.664;2022-12-20T01:52:18;5.43;;;2.08;;
9906;SDS011;4992;51.628;6.664;2022-12-20T01:54:50;4.63;;;2.30;;
9906;SDS011;4992;51.628;6.664;2022-12-20T01:57:21;4.10;;;2.72;;
9906;SDS011;4992;51.628;6.664;2022-12-20T01:59:55;3.17;;;2.42;;
9906;SDS011;4992;51.628;6.664;2022-12-20T02:02:22;6.20;;;2.60;;
9906;SDS011;4992;51.628;6.664;2022-12-20T02:04:48;5.37;;;2.53;;
9906;SDS011;4992;51.628;6.664;2022-12-20T02:07:16;3.20;;;1.92;;
9906;SDS011;4992;51.628;6.664;2022-12-20T02:09:45;3.78;;;1.80;;
9906;SDS011;4992;51.628;6.664;2022-12-20T02:17:54;2.40;;;1.83;;
9906;SDS011;4992;51.628;6.664;2022-12-20T02:29:06;2.72;;;1.50;;
9906;SDS011;4992;51.628;6.664;2022-12-20T02:34:18;1.60;;;1.50;;
9906;SDS011;4992;51.628;6.664;2022-12-20T02:36:48;2.55;;;1.60;;
9906;SDS011;4992;51.628;6.664;2022-12-20T02:39:15;4.85;;;1.63;;
9906;SDS011;4992;51.628;6.664;2022-12-20T02:41:42;2.08;;;1.88;;
9906;SDS011;4992;51.628;6.664;2022-12-20T02:44:12;2.03;;;1.80;;
9906;SDS011;4992;51.628;6.664;2022-12-20T02:46:59;2.28;;;2.08;;
9906;SDS011;4992;51.628;6.664;2022-12-20T02:49:29;2.08;;;1.40;;
9906;SDS011;4992;51.628;6.664;2022-12-20T02:51:59;2.75;;;1.40;;
9906;SDS011;4992;51.628;6.664;2022-12-20T02:54:26;2.85;;;1.70;;
9906;SDS011;4992;51.628;6.664;2022-12-20T02:56:54;1.88;;;1.48;;
9906;SDS011;4992;51.628;6.664;2022-12-20T02:59:29;1.90;;;1.80;;
9906;SDS011;4992;51.628;6.664;2022-12-20T03:02:00;3.80;;;1.77;;
9906;SDS011;4992;51.628;6.664;2022-12-20T03:04:27;2.05;;;1.90;;
9906;SDS011;4992;51.628;6.664;2022-12-20T03:06:56;2.70;;;1.92;;
9906;SDS011;4992;51.628;6.664;2022-12-20T03:09:26;1.90;;;1.65;;
9906;SDS011;4992;51.628;6.664;2022-12-20T03:11:54;2.15;;;1.95;;
9906;SDS011;4992;51.628;6.664;2022-12-20T03:14:20;2.33;;;2.13;;
9906;SDS011;4992;51.628;6.664;2022-12-20T03:16:46;2.55;;;1.85;;
9906;SDS011;4992;51.628;6.664;2022-12-20T03:19:12;5.40;;;2.08;;
9906;SDS011;4992;51.628;6.664;2022-12-20T03:21:37;4.80;;;2.28;;
9906;SDS011;4992;51.628;6.664;2022-12-20T03:24:03;3.85;;;2.10;;
9906;SDS011;4992;51.628;6.664;2022-12-20T03:26:28;3.57;;;1.97;;
9906;SDS011;4992;51.628;6.664;2022-12-20T03:28:54;3.90;;;2.40;;
9906;SDS011;4992;51.628;6.664;2022-12-20T03:31:19;2.37;;;2.17;;
9906;SDS011;4992;51.628;6.664;2022-12-20T03:33:45;3.83;;;2.03;;
9906;SDS011;4992;51.628;6.664;2022-12-20T03:36:11;2.40;;;2.20;;
9906;SDS011;4992;51.628;6.664;2022-12-20T03:38:36;3.93;;;1.93;;
9906;SDS011;4992;51.628;6.664;2022-12-20T03:41:02;2.77;;;1.93;;
9906;SDS011;4992;51.628;6.664;2022-12-20T03:43:27;2.63;;;2.33;;
9906;SDS011;4992;51.628;6.664;2022-12-20T03:45:53;2.90;;;1.93;;
9906;SDS011;4992;51.628;6.664;2022-12-20T03:48:18;2.20;;;2.00;;
9906;SDS011;4992;51.628;6.664;2022-12-20T03:50:44;4.53;;;2.88;;
9906;SDS011;4992;51.628;6.664;2022-12-20T03:53:09;7.05;;;3.13;;
9906;SDS011;4992;51.628;6.664;2022-12-20T03:55:35;8.57;;;3.53;;
9906;SDS011;4992;51.628;6.664;2022-12-20T03:58:00;5.88;;;3.33;;
9906;SDS011;4992;51.628;6.664;2022-12-20T04:00:26;3.67;;;3.20;;
9906;SDS011;4992;51.628;6.664;2022-12-20T04:02:52;7.57;;;3.67;;
9906;SDS011;4992;51.628;6.664;2022-12-20T04:05:17;6.90;;;4.13;;
9906;SDS011;4992;51.628;6.664;2022-12-20T04:07:43;4.78;;;3.95;;
9906;SDS011;4992;51.628;6.664;2022-12-20T04:10:09;7.10;;;3.63;;
9906;SDS011;4992;51.628;6.664;2022-12-20T04:12:35;5.47;;;3.45;;
9906;SDS011;4992;51.628;6.664;2022-12-20T04:15:01;7.15;;;3.20;;
9906;SDS011;4992;51.628;6.664;2022-12-20T04:17:27;7.88;;;3.38;;
9906;SDS011;4992;51.628;6.664;2022-12-20T04:19:53;5.00;;;3.83;;
9906;SDS011;4992;51.628;6.664;2022-12-20T04:22:18;5.30;;;3.20;;
9906;SDS011;4992;51.628;6.664;2022-12-20T04:24:44;4.90;;;3.15;;
9906;SDS011;4992;51.628;6.664;2022-12-20T04:27:09;4.05;;;3.22;;
9906;SDS011;4992;51.628;6.664;2022-12-20T04:29:35;7.03;;;3.17;;
9906;SDS011;4992;51.628;6.664;2022-12-20T04:32:00;4.03;;;3.08;;
9906;SDS011;4992;51.628;6.664;2022-12-20T04:34:26;4.05;;;3.65;;
9906;SDS011;4992;51.628;6.664;2022-12-20T04:36:51;7.27;;;3.63;;
9906;SDS011;4992;51.628;6.664;2022-12-20T04:39:17;5.50;;;3.50;;
9906;SDS011;4992;51.628;6.664;2022-12-20T04:41:43;3.73;;;3.13;;
9906;SDS011;4992;51.628;6.664;2022-12-20T04:44:08;4.13;;;3.83;;
9906;SDS011;4992;51.628;6.664;2022-12-20T04:46:34;3.50;;;3.20;;
9906;SDS011;4992;51.628;6.664;2022-12-20T04:49:00;7.20;;;3.75;;
9906;SDS011;4992;51.628;6.664;2022-12-20T04:51:26;4.85;;;3.70;;
9906;SDS011;4992;51.628;6.664;2022-12-20T04:53:52;4.63;;;3.30;;
9906;SDS011;4992;51.628;6.664;2022-12-20T04:56:19;5.77;;;3.60;;
9906;SDS011;4992;51.628;6.664;2022-12-20T04:58:51;5.43;;;3.83;;
9906;SDS011;4992;51.628;6.664;2022-12-20T05:01:18;7.80;;;4.00;;
9906;SDS011;4992;51.628;6.664;2022-12-20T05:03:44;8.10;;;3.50;;
9906;SDS011;4992;51.628;6.664;2022-12-20T05:06:10;5.63;;;3.90;;
9906;SDS011;4992;51.628;6.664;2022-12-20T05:08:36;9.97;;;3.83;;
9906;SDS011;4992;51.628;6.664;2022-12-20T05:11:02;5.90;;;3.47;;
9906;SDS011;4992;51.628;6.664;2022-12-20T05:13:28;7.53;;;4.10;;
9906;SDS011;4992;51.628;6.664;2022-12-20T05:15:54;9.00;;;4.63;;
9906;SDS011;4992;51.628;6.664;2022-12-20T05:18:21;7.03;;;4.80;;
9906;SDS011;4992;51.628;6.664;2022-12-20T05:20:47;7.53;;;4.57;;
9906;SDS011;4992;51.628;6.664;2022-12-20T05:23:33;5.77;;;4.30;;
9906;SDS011;4992;51.628;6.664;2022-12-20T05:26:17;5.67;;;4.40;;
9906;SDS011;4992;51.628;6.664;2022-12-20T05:28:43;9.33;;;5.27;;
9906;SDS011;4992;51.628;6.664;2022-12-20T05:31:09;6.50;;;4.57;;
9906;SDS011;4992;51.628;6.664;2022-12-20T05:33:35;7.00;;;5.10;;
9906;SDS011;4992;51.628;6.664;2022-12-20T05:36:00;7.87;;;4.60;;
9906;SDS011;4992;51.628;6.664;2022-12-20T05:38:26;6.25;;;4.30;;
9906;SDS011;4992;51.628;6.664;2022-12-20T05:40:51;15.83;;;10.53;;
9906;SDS011;4992;51.628;6.664;2022-12-20T05:43:17;5.47;;;4.22;;
9906;SDS011;4992;51.628;6.664;2022-12-20T05:45:47;6.60;;;4.87;;
9906;SDS011;4992;51.628;6.664;2022-12-20T05:48:15;6.47;;;4.87;;
9906;SDS011;4992;51.628;6.664;2022-12-20T05:50:41;8.43;;;4.80;;
9906;SDS011;4992;51.628;6.664;2022-12-20T05:53:12;7.57;;;5.27;;
9906;SDS011;4992;51.628;6.664;2022-12-20T05:55:48;5.70;;;4.53;;
9906;SDS011;4992;51.628;6.664;2022-12-20T05:58:15;8.30;;;5.33;;
9906;SDS011;4992;51.628;6.664;2022-12-20T06:00:41;5.50;;;4.77;;
9906;SDS011;4992;51.628;6.664;2022-12-20T06:03:08;5.77;;;5.03;;
9906;SDS011;4992;51.628;6.664;2022-12-20T06:05:36;5.10;;;4.10;;
9906;SDS011;4992;51.628;6.664;2022-12-20T06:08:03;6.37;;;4.40;;
9906;SDS011;4992;51.628;6.664;2022-12-20T06:10:29;4.73;;;4.10;;
9906;SDS011;4992;51.628;6.664;2022-12-20T06:12:55;5.03;;;4.50;;
9906;SDS011;4992;51.628;6.664;2022-12-20T06:15:21;8.37;;;4.43;;
9906;SDS011;4992;51.628;6.664;2022-12-20T06:17:46;5.53;;;4.20;;
9906;SDS011;4992;51.628;6.664;2022-12-20T06:20:12;9.63;;;4.47;;
9906;SDS011;4992;51.628;6.664;2022-12-20T06:22:37;6.83;;;4.43;;
9906;SDS011;4992;51.628;6.664;2022-12-20T06:25:03;8.33;;;4.70;;
9906;SDS011;4992;51.628;6.664;2022-12-20T06:27:29;6.57;;;3.93;;
9906;SDS011;4992;51.628;6.664;2022-12-20T06:29:55;6.33;;;4.10;;
9906;SDS011;4992;51.628;6.664;2022-12-20T06:32:21;5.70;;;3.77;;
9906;SDS011;4992;51.628;6.664;2022-12-20T06:34:46;5.90;;;4.00;;
9906;SDS011;4992;51.628;6.664;2022-12-20T06:37:12;5.30;;;3.60;;
9906;SDS011;4992;51.628;6.664;2022-12-20T06:39:37;5.40;;;3.87;;
9906;SDS011;4992;51.628;6.664;2022-12-20T06:42:03;9.47;;;3.73;;
9906;SDS011;4992;51.628;6.664;2022-12-20T06:44:29;5.38;;;3.63;;
9906;SDS011;4992;51.628;6.664;2022-12-20T06:46:54;6.50;;;3.43;;
9906;SDS011;4992;51.628;6.664;2022-12-20T06:49:20;6.43;;;4.07;;
9906;SDS011;4992;51.628;6.664;2022-12-20T06:51:46;8.17;;;3.53;;
9906;SDS011;4992;51.628;6.664;2022-12-20T06:54:12;5.23;;;3.37;;
9906;SDS011;4992;51.628;6.664;2022-12-20T06:56:37;5.88;;;3.80;;
9906;SDS011;4992;51.628;6.664;2022-12-20T06:59:03;5.68;;;3.90;;
9906;SDS011;4992;51.628;6.664;2022-12-20T07:01:29;6.07;;;3.67;;
9906;SDS011;4992;51.628;6.664;2022-12-20T07:03:55;6.43;;;3.58;;
9906;SDS011;4992;51.628;6.664;2022-12-20T07:06:20;4.80;;;2.90;;
9906;SDS011;4992;51.628;6.664;2022-12-20T07:08:46;6.03;;;3.30;;
9906;SDS011;4992;51.628;6.664;2022-12-20T07:11:11;3.83;;;2.80;;
9906;SDS011;4992;51.628;6.664;2022-12-20T07:13:37;6.85;;;3.25;;
9906;SDS011;4992;51.628;6.664;2022-12-20T07:16:02;4.43;;;3.10;;
9906;SDS011;4992;51.628;6.664;2022-12-20T07:18:28;4.00;;;2.92;;
9906;SDS011;4992;51.628;6.664;2022-12-20T07:21:04;6.40;;;3.10;;
9906;SDS011;4992;51.628;6.664;2022-12-20T07:23:30;6.28;;;4.10;;
9906;SDS011;4992;51.628;6.664;2022-12-20T07:25:57;4.90;;;3.03;;
9906;SDS011;4992;51.628;6.664;2022-12-20T07:28:24;6.50;;;3.10;;
9906;SDS011;4992;51.628;6.664;2022-12-20T07:30:50;4.43;;;3.28;;
9906;SDS011;4992;51.628;6.664;2022-12-20T07:33:16;4.90;;;3.28;;
9906;SDS011;4992;51.628;6.664;2022-12-20T07:35:41;6.45;;;3.25;;
9906;SDS011;4992;51.628;6.664;2022-12-20T07:38:09;4.88;;;3.05;;
9906;SDS011;4992;51.628;6.664;2022-12-20T07:40:35;4.57;;;2.88;;
9906;SDS011;4992;51.628;6.664;2022-12-20T07:43:04;7.75;;;3.35;;
9906;SDS011;4992;51.628;6.664;2022-12-20T07:45:29;6.80;;;3.40;;
9906;SDS011;4992;51.628;6.664;2022-12-20T07:47:55;4.20;;;2.92;;
9906;SDS011;4992;51.628;6.664;2022-12-20T07:50:21;5.65;;;3.00;;
9906;SDS011;4992;51.628;6.664;2022-12-20T07:52:48;6.63;;;3.15;;
9906;SDS011;4992;51.628;6.664;2022-12-20T07:55:14;6.30;;;2.83;;
9906;SDS011;4992;51.628;6.664;2022-12-20T07:57:46;5.47;;;3.33;;
9906;SDS011;4992;51.628;6.664;2022-12-20T08:00:15;5.90;;;3.40;;
9906;SDS011;4992;51.628;6.664;2022-12-20T08:02:56;6.28;;;3.28;;
9906;SDS011;4992;51.628;6.664;2022-12-20T08:05:34;4.70;;;3.08;;
9906;SDS011;4992;51.628;6.664;2022-12-20T08:08:05;7.22;;;4.05;;
9906;SDS011;4992;51.628;6.664;2022-12-20T08:10:32;4.18;;;3.70;;
9906;SDS011;4992;51.628;6.664;2022-12-20T08:12:58;5.07;;;2.95;;
9906;SDS011;4992;51.628;6.664;2022-12-20T08:15:24;7.60;;;3.42;;
9906;SDS011;4992;51.628;6.664;2022-12-20T08:17:50;4.90;;;3.20;;
9906;SDS011;4992;51.628;6.664;2022-12-20T08:20:15;3.95;;;3.33;;
9906;SDS011;4992;51.628;6.664;2022-12-20T08:22:41;6.28;;;3.47;;
9906;SDS011;4992;51.628;6.664;2022-12-20T08:25:07;5.60;;;3.38;;
9906;SDS011;4992;51.628;6.664;2022-12-20T08:27:33;5.22;;;2.95;;
9906;SDS011;4992;51.628;6.664;2022-12-20T08:29:59;4.60;;;2.83;;
9906;SDS011;4992;51.628;6.664;2022-12-20T08:32:24;4.10;;;2.60;;
9906;SDS011;4992;51.628;6.664;2022-12-20T08:34:51;3.25;;;2.40;;
9906;SDS011;4992;51.628;6.664;2022-12-20T08:37:16;2.60;;;2.40;;
9906;SDS011;4992;51.628;6.664;2022-12-20T08:39:42;5.93;;;2.78;;
9906;SDS011;4992;51.628;6.664;2022-12-20T08:42:08;3.22;;;2.53;;
9906;SDS011;4992;51.628;6.664;2022-12-20T08:44:34;2.92;;;2.35;;
9906;SDS011;4992;51.628;6.664;2022-12-20T08:46:59;5.82;;;2.75;;
9906;SDS011;4992;51.628;6.664;2022-12-20T08:49:25;3.63;;;2.38;;
9906;SDS011;4992;51.628;6.664;2022-12-20T08:51:50;4.40;;;2.60;;
9906;SDS011;4992;51.628;6.664;2022-12-20T08:54:16;5.65;;;2.72;;
9906;SDS011;4992;51.628;6.664;2022-12-20T08:56:41;3.75;;;2.47;;
9906;SDS011;4992;51.628;6.664;2022-12-20T08:59:07;2.95;;;2.60;;
9906;SDS011;4992;51.628;6.664;2022-12-20T09:01:32;5.80;;;3.28;;
9906;SDS011;4992;51.628;6.664;2022-12-20T09:03:58;4.75;;;2.67;;
9906;SDS011;4992;51.628;6.664;2022-12-20T09:06:24;3.92;;;3.13;;
9906;SDS011;4992;51.628;6.664;2022-12-20T09:08:50;3.00;;;2.22;;
9906;SDS011;4992;51.628;6.664;2022-12-20T09:11:20;3.63;;;2.38;;
9906;SDS011;4992;51.628;6.664;2022-12-20T09:13:48;4.43;;;2.47;;
9906;SDS011;4992;51.628;6.664;2022-12-20T09:16:16;3.20;;;2.63;;
9906;SDS011;4992;51.628;6.664;2022-12-20T09:18:47;3.03;;;2.03;;
9906;SDS011;4992;51.628;6.664;2022-12-20T09:21:17;4.60;;;2.30;;
9906;SDS011;4992;51.628;6.664;2022-12-20T09:23:43;5.20;;;1.90;;
9906;SDS011;4992;51.628;6.664;2022-12-20T09:26:10;2.30;;;1.85;;
9906;SDS011;4992;51.628;6.664;2022-12-20T09:28:37;3.53;;;2.08;;
9906;SDS011;4992;51.628;6.664;2022-12-20T09:31:04;2.42;;;2.00;;
9906;SDS011;4992;51.628;6.664;2022-12-20T09:33:31;6.05;;;2.00;;
9906;SDS011;4992;51.628;6.664;2022-12-20T09:35:59;3.08;;;2.55;;
9906;SDS011;4992;51.628;6.664;2022-12-20T09:38:25;2.65;;;1.85;;
9906;SDS011;4992;51.628;6.664;2022-12-20T09:40:53;2.88;;;1.98;;
9906;SDS011;4992;51.628;6.664;2022-12-20T09:43:23;2.63;;;1.85;;
9906;SDS011;4992;51.628;6.664;2022-12-20T09:45:53;3.05;;;2.20;;
9906;SDS011;4992;51.628;6.664;2022-12-20T09:48:22;3.08;;;2.22;;
9906;SDS011;4992;51.628;6.664;2022-12-20T09:53:41;5.28;;;2.47;;
9906;SDS011;4992;51.628;6.664;2022-12-20T09:56:29;4.47;;;2.53;;
9906;SDS011;4992;51.628;6.664;2022-12-20T09:59:12;4.22;;;2.70;;
9906;SDS011;4992;51.628;6.664;2022-12-20T10:01:42;3.70;;;2.38;;
9906;SDS011;4992;51.628;6.664;2022-12-20T10:06:49;2.55;;;2.33;;
9906;SDS011;4992;51.628;6.664;2022-12-20T10:09:52;4.72;;;2.30;;
9906;SDS011;4992;51.628;6.664;2022-12-20T10:17:45;3.42;;;2.10;;
9906;SDS011;4992;51.628;6.664;2022-12-20T10:20:26;3.67;;;2.22;;
9906;SDS011;4992;51.628;6.664;2022-12-20T10:23:11;2.67;;;2.03;;
9906;SDS011;4992;51.628;6.664;2022-12-20T10:25:50;5.88;;;2.30;;
9906;SDS011;4992;51.628;6.664;2022-12-20T10:28:18;6.50;;;2.15;;
9906;SDS011;4992;51.628;6.664;2022-12-20T10:30:48;3.50;;;2.22;;
9906;SDS011;4992;51.628;6.664;2022-12-20T10:33:21;4.75;;;2.92;;
9906;SDS011;4992;51.628;6.664;2022-12-20T10:35:48;6.45;;;2.50;;
9906;SDS011;4992;51.628;6.664;2022-12-20T10:38:15;4.82;;;2.50;;
9906;SDS011;4992;51.628;6.664;2022-12-20T10:40:43;5.00;;;2.85;;
9906;SDS011;4992;51.628;6.664;2022-12-20T10:43:19;5.85;;;2.25;;
9906;SDS011;4992;51.628;6.664;2022-12-20T10:46:05;4.68;;;2.38;;
9906;SDS011;4992;51.628;6.664;2022-12-20T10:48:33;5.45;;;2.50;;
9906;SDS011;4992;51.628;6.664;2022-12-20T10:51:21;4.22;;;1.92;;
9906;SDS011;4992;51.628;6.664;2022-12-20T10:53:54;3.95;;;2.45;;
9906;SDS011;4992;51.628;6.664;2022-12-20T10:56:28;6.75;;;2.25;;
9906;SDS011;4992;51.628;6.664;2022-12-20T11:01:27;2.78;;;2.13;;
9906;SDS011;4992;51.628;6.664;2022-12-20T11:03:56;4.05;;;2.08;;
9906;SDS011;4992;51.628;6.664;2022-12-20T11:06:42;3.53;;;2.17;;
9906;SDS011;4992;51.628;6.664;2022-12-20T11:11:56;3.08;;;2.17;;
9906;SDS011;4992;51.628;6.664;2022-12-20T11:14:25;3.88;;;2.08;;
9906;SDS011;4992;51.628;6.664;2022-12-20T11:16:52;4.00;;;2.05;;
9906;SDS011;4992;51.628;6.664;2022-12-20T11:22:47;3.47;;;2.03;;
9906;SDS011;4992;51.628;6.664;2022-12-20T11:25:35;2.42;;;1.95;;
9906;SDS011;4992;51.628;6.664;2022-12-20T11:39:25;5.35;;;2.40;;
9906;SDS011;4992;51.628;6.664;2022-12-20T11:50:35;5.05;;;2.35;;
9906;SDS011;4992;51.628;6.664;2022-12-20T11:55:55;4.93;;;2.80;;
9906;SDS011;4992;51.628;6.664;2022-12-20T11:58:59;4.07;;;3.00;;
9906;SDS011;4992;51.628;6.664;2022-12-20T12:01:19;3.33;;;2.80;;
9906;SDS011;4992;51.628;6.664;2022-12-20T12:04:10;5.03;;;3.13;;
9906;SDS011;4992;51.628;6.664;2022-12-20T12:06:42;4.53;;;2.90;;
9906;SDS011;4992;51.628;6.664;2022-12-20T12:09:17;5.75;;;2.58;;
9906;SDS011;4992;51.628;6.664;2022-12-20T12:11:53;4.97;;;2.90;;
9906;SDS011;4992;51.628;6.664;2022-12-20T12:14:37;5.93;;;3.00;;
9906;SDS011;4992;51.628;6.664;2022-12-20T12:17:07;4.20;;;2.80;;
9906;SDS011;4992;51.628;6.664;2022-12-20T12:19:40;6.38;;;3.60;;
9906;SDS011;4992;51.628;6.664;2022-12-20T12:22:16;4.47;;;2.92;;
9906;SDS011;4992;51.628;6.664;2022-12-20T12:24:51;4.22;;;2.90;;
9906;SDS011;4992;51.628;6.664;2022-12-20T12:27:23;6.55;;;3.22;;
9906;SDS011;4992;51.628;6.664;2022-12-20T12:29:51;6.45;;;3.28;;
9906;SDS011;4992;51.628;6.664;2022-12-20T12:32:31;4.13;;;3.13;;
9906;SDS011;4992;51.628;6.664;2022-12-20T12:37:46;4.18;;;3.35;;
9906;SDS011;4992;51.628;6.664;2022-12-20T12:40:38;4.03;;;3.10;;
9906;SDS011;4992;51.628;6.664;2022-12-20T12:46:08;5.20;;;3.58;;
9906;SDS011;4992;51.628;6.664;2022-12-20T12:48:42;6.40;;;3.20;;
9906;SDS011;4992;51.628;6.664;2022-12-20T12:51:14;3.75;;;3.05;;
9906;SDS011;4992;51.628;6.664;2022-12-20T12:53:48;8.75;;;3.50;;
9906;SDS011;4992;51.628;6.664;2022-12-20T13:01:52;7.07;;;3.67;;
9906;SDS011;4992;51.628;6.664;2022-12-20T13:11:50;3.63;;;2.20;;
9906;SDS011;4992;51.628;6.664;2022-12-20T13:16:46;3.70;;;2.00;;
9906;SDS011;4992;51.628;6.664;2022-12-20T13:32:50;5.25;;;2.33;;
9906;SDS011;4992;51.628;6.664;2022-12-20T13:37:57;5.55;;;1.75;;
9906;SDS011;4992;51.628;6.664;2022-12-20T13:40:51;5.72;;;1.90;;
9906;SDS011;4992;51.628;6.664;2022-12-20T13:45:48;2.08;;;1.80;;
9906;SDS011;4992;51.628;6.664;2022-12-20T13:48:18;4.13;;;1.83;;
9906;SDS011;4992;51.628;6.664;2022-12-20T13:50:49;2.83;;;1.40;;
9906;SDS011;4992;51.628;6.664;2022-12-20T13:53:18;2.53;;;2.33;;
9906;SDS011;4992;51.628;6.664;2022-12-20T13:55:45;3.25;;;1.92;;
9906;SDS011;4992;51.628;6.664;2022-12-20T13:58:32;3.03;;;1.98;;
9906;SDS011;4992;51.628;6.664;2022-12-20T14:01:04;3.33;;;2.10;;
9906;SDS011;4992;51.628;6.664;2022-12-20T14:03:31;3.95;;;2.03;;
9906;SDS011;4992;51.628;6.664;2022-12-20T14:06:04;6.40;;;2.65;;
9906;SDS011;4992;51.628;6.664;2022-12-20T14:08:35;4.05;;;2.50;;
9906;SDS011;4992;51.628;6.664;2022-12-20T14:11:07;3.05;;;2.75;;
9906;SDS011;4992;51.628;6.664;2022-12-20T14:13:34;5.18;;;2.65;;
9906;SDS011;4992;51.628;6.664;2022-12-20T14:16:10;3.58;;;2.17;;
9906;SDS011;4992;51.628;6.664;2022-12-20T14:18:39;5.13;;;2.80;;
9906;SDS011;4992;51.628;6.664;2022-12-20T14:21:05;4.32;;;2.58;;
9906;SDS011;4992;51.628;6.664;2022-12-20T14:26:19;3.10;;;2.33;;
9906;SDS011;4992;51.628;6.664;2022-12-20T14:28:49;3.60;;;2.58;;
9906;SDS011;4992;51.628;6.664;2022-12-20T14:36:39;3.80;;;2.80;;
9906;SDS011;4992;51.628;6.664;2022-12-20T14:42:34;4.72;;;2.83;;
9906;SDS011;4992;51.628;6.664;2022-12-20T14:44:43;4.60;;;3.15;;
9906;SDS011;4992;51.628;6.664;2022-12-20T14:47:24;6.03;;;3.20;;
9906;SDS011;4992;51.628;6.664;2022-12-20T14:49:53;5.85;;;2.95;;
9906;SDS011;4992;51.628;6.664;2022-12-20T14:52:29;6.35;;;2.90;;
9906;SDS011;4992;51.628;6.664;2022-12-20T14:55:05;4.72;;;3.00;;
9906;SDS011;4992;51.628;6.664;2022-12-20T14:57:39;5.65;;;3.05;;
9906;SDS011;4992;51.628;6.664;2022-12-20T15:13:13;6.00;;;3.13;;
9906;SDS011;4992;51.628;6.664;2022-12-20T15:15:40;4.88;;;3.08;;
9906;SDS011;4992;51.628;6.664;2022-12-20T15:18:09;5.15;;;3.22;;
9906;SDS011;4992;51.628;6.664;2022-12-20T15:20:36;9.13;;;3.55;;
9906;SDS011;4992;51.628;6.664;2022-12-20T15:23:02;5.68;;;3.40;;
9906;SDS011;4992;51.628;6.664;2022-12-20T15:25:27;5.20;;;3.45;;
9906;SDS011;4992;51.628;6.664;2022-12-20T15:27:57;4.47;;;3.38;;
9906;SDS011;4992;51.628;6.664;2022-12-20T15:30:23;6.45;;;3.38;;
9906;SDS011;4992;51.628;6.664;2022-12-20T15:32:48;5.78;;;3.15;;
9906;SDS011;4992;51.628;6.664;2022-12-20T15:35:14;6.97;;;3.67;;
9906;SDS011;4992;51.628;6.664;2022-12-20T15:37:40;5.25;;;3.67;;
9906;SDS011;4992;51.628;6.664;2022-12-20T15:40:06;6.03;;;3.83;;
9906;SDS011;4992;51.628;6.664;2022-12-20T15:42:37;4.57;;;3.35;;
9906;SDS011;4992;51.628;6.664;2022-12-20T15:45:05;6.05;;;3.35;;
9906;SDS011;4992;51.628;6.664;2022-12-20T15:47:31;6.20;;;3.90;;
9906;SDS011;4992;51.628;6.664;2022-12-20T15:49:56;8.25;;;3.92;;
9906;SDS011;4992;51.628;6.664;2022-12-20T15:52:22;6.60;;;3.85;;
9906;SDS011;4992;51.628;6.664;2022-12-20T15:54:48;5.90;;;4.03;;
9906;SDS011;4992;51.628;6.664;2022-12-20T15:57:14;7.50;;;3.72;;
9906;SDS011;4992;51.628;6.664;2022-12-20T15:59:40;5.73;;;3.37;;
9906;SDS011;4992;51.628;6.664;2022-12-20T16:02:22;7.32;;;3.88;;
9906;SDS011;4992;51.628;6.664;2022-12-20T16:04:50;6.57;;;3.85;;
9906;SDS011;4992;51.628;6.664;2022-12-20T16:07:16;6.82;;;3.67;;
9906;SDS011;4992;51.628;6.664;2022-12-20T16:09:41;6.78;;;4.30;;
9906;SDS011;4992;51.628;6.664;2022-12-20T16:12:12;7.38;;;3.72;;
9906;SDS011;4992;51.628;6.664;2022-12-20T16:14:40;7.72;;;3.90;;
9906;SDS011;4992;51.628;6.664;2022-12-20T16:17:08;5.68;;;3.60;;
9906;SDS011;4992;51.628;6.664;2022-12-20T16:19:38;8.20;;;3.90;;
9906;SDS011;4992;51.628;6.664;2022-12-20T16:22:04;6.60;;;3.83;;
9906;SDS011;4992;51.628;6.664;2022-12-20T16:24:30;7.13;;;4.25;;
9906;SDS011;4992;51.628;6.664;2022-12-20T16:26:55;6.60;;;4.70;;
9906;SDS011;4992;51.628;6.664;2022-12-20T16:29:20;9.85;;;4.85;;
9906;SDS011;4992;51.628;6.664;2022-12-20T16:31:46;6.38;;;4.75;;
9906;SDS011;4992;51.628;6.664;2022-12-20T16:34:13;7.30;;;4.45;;
9906;SDS011;4992;51.628;6.664;2022-12-20T16:36:40;7.97;;;4.32;;
9906;SDS011;4992;51.628;6.664;2022-12-20T16:39:06;8.55;;;4.65;;
9906;SDS011;4992;51.628;6.664;2022-12-20T16:41:34;4.70;;;4.18;;
9906;SDS011;4992;51.628;6.664;2022-12-20T16:44:01;4.93;;;4.45;;
9906;SDS011;4992;51.628;6.664;2022-12-20T16:46:28;7.18;;;5.10;;
9906;SDS011;4992;51.628;6.664;2022-12-20T16:48:55;8.30;;;5.10;;
9906;SDS011;4992;51.628;6.664;2022-12-20T16:53:56;11.15;;;6.20;;
9906;SDS011;4992;51.628;6.664;2022-12-20T16:56:29;9.38;;;6.40;;
9906;SDS011;4992;51.628;6.664;2022-12-20T16:58:56;11.40;;;6.43;;
9906;SDS011;4992;51.628;6.664;2022-12-20T17:01:23;7.17;;;5.97;;
9906;SDS011;4992;51.628;6.664;2022-12-20T17:03:54;12.70;;;6.55;;
9906;SDS011;4992;51.628;6.664;2022-12-20T17:06:19;8.43;;;6.72;;
9906;SDS011;4992;51.628;6.664;2022-12-20T17:08:45;11.85;;;6.68;;
9906;SDS011;4992;51.628;6.664;2022-12-20T17:11:22;8.07;;;5.55;;
9906;SDS011;4992;51.628;6.664;2022-12-20T17:13:51;7.60;;;6.25;;
9906;SDS011;4992;51.628;6.664;2022-12-20T17:16:18;12.98;;;6.95;;
9906;SDS011;4992;51.628;6.664;2022-12-20T17:18:45;7.20;;;5.90;;
9906;SDS011;4992;51.628;6.664;2022-12-20T17:23:43;10.18;;;6.32;;
9906;SDS011;4992;51.628;6.664;2022-12-20T17:26:12;10.23;;;7.32;;
9906;SDS011;4992;51.628;6.664;2022-12-20T17:28:39;9.43;;;7.13;;
9906;SDS011;4992;51.628;6.664;2022-12-20T17:31:12;8.75;;;6.75;;
9906;SDS011;4992;51.628;6.664;2022-12-20T17:33:58;9.35;;;6.88;;
9906;SDS011;4992;51.628;6.664;2022-12-20T17:36:27;12.90;;;7.32;;
9906;SDS011;4992;51.628;6.664;2022-12-20T17:38:53;8.52;;;6.95;;